createdAt,value
2022-12-31T00:00:15.339Z,5.90
2022-12-31T00:02:42.446Z,5.79
2022-12-31T00:05:10.053Z,5.82
2022-12-31T00:10:04.705Z,5.78
2022-12-31T00:12:31.743Z,5.79
2022-12-31T00:14:58.742Z,5.72
2022-12-31T00:17:25.826Z,5.74
2022-12-31T00:19:52.821Z,5.79
2022-12-31T00:22:19.824Z,5.82
2022-12-31T00:24:47.201Z,5.72
2022-12-31T00:27:14.230Z,5.67
2022-12-31T00:29:41.285Z,5.56
2022-12-31T00:32:08.509Z,5.58
2022-12-31T00:34:35.563Z,5.55
2022-12-31T00:37:02.629Z,5.60
2022-12-31T00:39:29.737Z,5.61
2022-12-31T00:41:56.776Z,5.57
2022-12-31T00:44:23.865Z,5.63
2022-12-31T00:46:50.883Z,5.56
2022-12-31T00:49:18.000Z,5.55
2022-12-31T00:51:46.786Z,5.61
2022-12-31T00:54:14.154Z,5.53
2022-12-31T00:56:41.293Z,5.55
2022-12-31T00:59:08.498Z,5.51
2022-12-31T01:01:38.837Z,5.57
2022-12-31T01:04:19.784Z,5.55
2022-12-31T01:06:47.527Z,5.50
2022-12-31T01:09:16.987Z,5.51
2022-12-31T01:11:44.779Z,5.43
2022-12-31T01:14:19.034Z,5.43
2022-12-31T01:16:50.219Z,5.46
2022-12-31T01:19:29.246Z,5.49
2022-12-31T01:21:57.232Z,5.33
2022-12-31T01:24:24.702Z,5.44
2022-12-31T01:26:51.955Z,5.45
2022-12-31T01:29:19.450Z,5.48
2022-12-31T01:31:46.885Z,5.44
2022-12-31T01:34:13.995Z,5.42
2022-12-31T01:36:41.434Z,5.43
2022-12-31T01:39:09.619Z,5.41
2022-12-31T01:41:43.731Z,5.41
2022-12-31T01:44:13.391Z,5.40
2022-12-31T01:47:00.654Z,5.43
2022-12-31T01:49:42.963Z,5.40
2022-12-31T01:52:34.765Z,5.40
2022-12-31T01:55:51.222Z,5.45
2022-12-31T01:58:24.195Z,5.48
2022-12-31T02:00:53.260Z,5.41
2022-12-31T02:03:23.613Z,5.51
2022-12-31T02:06:03.513Z,5.52
2022-12-31T02:08:31.123Z,5.48
2022-12-31T02:10:58.120Z,5.52
2022-12-31T02:13:25.338Z,5.52
2022-12-31T02:16:19.364Z,5.55
2022-12-31T02:19:24.375Z,5.58
2022-12-31T02:22:33.374Z,5.62
2022-12-31T02:25:45.659Z,5.63
2022-12-31T02:28:53.292Z,5.66
2022-12-31T02:31:45.377Z,5.64
2022-12-31T02:34:21.833Z,5.65
2022-12-31T02:36:53.422Z,5.60
2022-12-31T02:39:21.575Z,5.56
2022-12-31T02:41:50.460Z,5.60
2022-12-31T02:44:29.266Z,5.61
2022-12-31T02:47:42.545Z,5.60
2022-12-31T02:50:29.573Z,5.65
2022-12-31T02:53:50.646Z,5.64
2022-12-31T02:56:39.166Z,5.64
2022-12-31T02:59:53.965Z,5.71
2022-12-31T03:02:23.962Z,5.73
2022-12-31T03:04:57.212Z,5.73
2022-12-31T03:07:32.000Z,5.73
2022-12-31T03:10:01.124Z,5.79
2022-12-31T03:12:47.871Z,5.82
2022-12-31T03:15:26.448Z,5.83
2022-12-31T03:18:09.932Z,5.83
2022-12-31T03:20:59.747Z,5.89
2022-12-31T03:23:50.278Z,5.92
2022-12-31T03:26:17.313Z,5.92
2022-12-31T03:28:47.848Z,6.02
2022-12-31T03:31:16.307Z,6.06
2022-12-31T03:33:43.527Z,6.00
2022-12-31T03:36:14.789Z,6.04
2022-12-31T03:38:42.176Z,6.05
2022-12-31T03:41:11.710Z,6.07
2022-12-31T03:43:38.856Z,6.08
2022-12-31T03:46:06.518Z,6.08
2022-12-31T03:48:33.580Z,6.14
2022-12-31T03:51:00.732Z,6.16
2022-12-31T03:53:28.428Z,6.17
2022-12-31T03:55:55.607Z,6.24
2022-12-31T03:58:22.935Z,6.24
2022-12-31T04:00:50.785Z,6.27
2022-12-31T04:03:18.165Z,6.24
2022-12-31T04:05:45.190Z,6.29
2022-12-31T04:08:12.633Z,6.37
2022-12-31T04:10:39.716Z,6.33
2022-12-31T04:13:06.764Z,6.40
2022-12-31T04:15:33.801Z,6.39
2022-12-31T04:18:00.820Z,6.51
2022-12-31T04:20:27.799Z,6.51
2022-12-31T04:22:54.821Z,6.54
2022-12-31T04:25:21.896Z,6.63
2022-12-31T04:27:48.940Z,6.69
2022-12-31T04:30:16.128Z,6.75
2022-12-31T04:32:43.194Z,6.68
2022-12-31T04:35:11.633Z,6.72
2022-12-31T04:37:38.964Z,6.79
2022-12-31T04:40:08.002Z,6.79
2022-12-31T04:42:36.030Z,6.74
2022-12-31T04:45:03.990Z,6.82
2022-12-31T04:47:31.110Z,6.82
2022-12-31T04:49:58.120Z,6.88
2022-12-31T04:52:25.158Z,6.83
2022-12-31T04:54:52.224Z,6.89
2022-12-31T04:57:19.246Z,6.92
2022-12-31T04:59:46.409Z,6.87
2022-12-31T05:02:13.598Z,6.88
2022-12-31T05:04:40.832Z,6.84
2022-12-31T05:07:07.874Z,6.94
2022-12-31T05:09:34.908Z,6.89
2022-12-31T05:12:02.066Z,6.96
2022-12-31T05:14:29.197Z,7.07
2022-12-31T05:16:56.369Z,7.16
2022-12-31T05:19:23.384Z,7.21
2022-12-31T05:22:10.360Z,7.22
2022-12-31T05:24:37.382Z,7.20
2022-12-31T05:27:04.477Z,7.20
2022-12-31T05:29:31.571Z,7.19
2022-12-31T05:31:58.637Z,7.21
2022-12-31T05:34:25.753Z,7.31
2022-12-31T05:36:53.084Z,7.29
2022-12-31T05:39:20.098Z,7.31
2022-12-31T05:41:47.096Z,7.28
2022-12-31T05:44:14.259Z,7.28
2022-12-31T05:46:41.322Z,7.26
2022-12-31T05:49:08.382Z,7.35
2022-12-31T05:51:35.384Z,7.38
2022-12-31T05:54:02.413Z,7.31
2022-12-31T05:56:29.505Z,7.44
2022-12-31T05:58:56.679Z,7.50
2022-12-31T06:01:23.780Z,7.60
2022-12-31T06:03:50.997Z,7.56
2022-12-31T06:06:18.076Z,7.54
2022-12-31T06:08:48.953Z,7.55
2022-12-31T06:11:16.462Z,7.58
2022-12-31T06:13:44.388Z,7.68
2022-12-31T06:16:11.637Z,7.71
2022-12-31T06:18:38.805Z,7.73
2022-12-31T06:21:06.085Z,7.68
2022-12-31T06:23:33.107Z,7.81
2022-12-31T06:26:05.330Z,7.78
2022-12-31T06:28:32.750Z,7.88
2022-12-31T06:31:12.437Z,7.89
2022-12-31T06:33:39.659Z,8.01
2022-12-31T06:36:11.436Z,7.98
2022-12-31T06:38:43.498Z,8.00
2022-12-31T06:41:13.611Z,8.05
2022-12-31T06:43:42.197Z,8.02
2022-12-31T06:46:13.405Z,8.08
2022-12-31T06:48:42.983Z,8.10
2022-12-31T06:51:17.337Z,8.09
2022-12-31T06:53:47.273Z,8.06
2022-12-31T06:56:33.180Z,8.03
2022-12-31T06:59:01.939Z,8.04
2022-12-31T07:01:46.913Z,8.13
2022-12-31T07:04:34.890Z,8.14
2022-12-31T07:07:32.881Z,8.12
2022-12-31T07:10:30.006Z,8.15
2022-12-31T07:13:23.885Z,8.22
2022-12-31T07:16:19.771Z,8.30
2022-12-31T07:19:06.764Z,8.30
2022-12-31T07:21:40.448Z,8.29
2022-12-31T07:24:10.142Z,8.36
2022-12-31T07:27:06.384Z,8.34
2022-12-31T07:30:14.514Z,8.35
2022-12-31T07:33:06.112Z,8.42
2022-12-31T07:35:56.493Z,8.53
2022-12-31T07:38:57.131Z,8.61
2022-12-31T07:42:05.598Z,8.59
2022-12-31T07:44:49.173Z,8.56
2022-12-31T07:47:28.619Z,8.59
2022-12-31T07:49:57.736Z,8.61
2022-12-31T07:52:25.777Z,8.74
2022-12-31T07:54:52.814Z,8.85
2022-12-31T07:57:21.451Z,8.79
2022-12-31T08:00:31.787Z,8.79
2022-12-31T08:03:36.553Z,8.88
2022-12-31T08:06:22.974Z,8.93
2022-12-31T08:09:05.565Z,9.07
2022-12-31T08:11:48.177Z,9.11
2022-12-31T08:14:16.089Z,9.13
2022-12-31T08:16:43.744Z,9.17
2022-12-31T08:19:30.720Z,9.14
2022-12-31T08:22:18.755Z,9.13
2022-12-31T08:25:25.441Z,9.06
2022-12-31T08:28:35.283Z,9.17
2022-12-31T08:31:15.988Z,9.19
2022-12-31T08:34:05.511Z,9.34
2022-12-31T08:36:52.598Z,9.45
2022-12-31T08:39:52.936Z,9.37
2022-12-31T08:43:06.213Z,9.55
2022-12-31T08:45:51.146Z,9.55
2022-12-31T08:48:38.690Z,9.62
2022-12-31T08:51:10.010Z,9.69
2022-12-31T08:53:37.491Z,9.66
2022-12-31T08:56:18.409Z,9.76
2022-12-31T08:59:03.017Z,9.76
2022-12-31T09:01:54.325Z,9.78
2022-12-31T09:05:15.461Z,9.89
2022-12-31T09:07:59.585Z,9.89
2022-12-31T09:10:36.557Z,10.15
2022-12-31T09:13:22.059Z,10.16
2022-12-31T09:15:58.863Z,10.17
2022-12-31T09:18:32.875Z,10.33
2022-12-31T09:21:00.567Z,10.32
2022-12-31T09:23:27.994Z,10.23
2022-12-31T09:26:33.480Z,10.26
2022-12-31T09:29:26.427Z,10.54
2022-12-31T09:32:07.090Z,10.67
2022-12-31T09:35:30.010Z,10.65
2022-12-31T09:38:07.991Z,11.12
2022-12-31T09:41:06.083Z,11.32
2022-12-31T09:44:06.819Z,11.53
2022-12-31T09:47:14.645Z,11.55
2022-12-31T09:50:28.647Z,11.66
2022-12-31T09:53:17.195Z,11.77
2022-12-31T09:55:55.344Z,11.79
2022-12-31T09:58:25.058Z,11.88
2022-12-31T10:01:35.701Z,11.97
2022-12-31T10:04:26.070Z,11.83
2022-12-31T10:07:25.096Z,11.67
2022-12-31T10:10:13.234Z,11.70
2022-12-31T10:12:55.968Z,12.05
2022-12-31T10:16:14.092Z,12.78
2022-12-31T10:19:31.536Z,13.18
2022-12-31T10:22:16.066Z,13.49
2022-12-31T10:25:07.275Z,13.59
2022-12-31T10:28:00.268Z,13.73
2022-12-31T10:30:40.587Z,14.63
2022-12-31T10:33:15.552Z,15.30
2022-12-31T10:36:05.238Z,15.35
2022-12-31T10:38:46.977Z,15.17
2022-12-31T10:41:38.661Z,14.80
2022-12-31T10:44:17.146Z,14.51
2022-12-31T10:47:24.152Z,14.13
2022-12-31T10:50:18.384Z,14.01
2022-12-31T10:53:28.386Z,13.73
2022-12-31T10:56:39.283Z,13.62
2022-12-31T10:59:59.937Z,13.56
2022-12-31T11:03:06.758Z,13.60
2022-12-31T11:06:07.425Z,13.42
2022-12-31T11:09:05.394Z,13.50
2022-12-31T11:12:02.446Z,14.04
2022-12-31T11:14:38.619Z,14.22
2022-12-31T11:17:34.452Z,14.08
2022-12-31T11:21:00.391Z,13.97
2022-12-31T11:23:33.364Z,13.80
2022-12-31T11:26:39.442Z,13.63
2022-12-31T11:29:25.080Z,13.45
2022-12-31T11:32:30.166Z,13.26
2022-12-31T11:35:13.543Z,13.15
2022-12-31T11:38:04.401Z,13.14
2022-12-31T11:41:01.880Z,13.27
2022-12-31T11:44:30.256Z,13.48
2022-12-31T11:47:16.433Z,13.51
2022-12-31T11:50:10.524Z,13.59
2022-12-31T11:52:54.390Z,13.56
2022-12-31T11:55:37.677Z,13.46
2022-12-31T11:58:31.573Z,13.29
2022-12-31T12:01:16.251Z,13.30
2022-12-31T12:03:44.841Z,13.34
2022-12-31T12:06:15.001Z,13.25
2022-12-31T12:08:44.316Z,13.21
2022-12-31T12:11:25.340Z,13.21
2022-12-31T12:13:52.347Z,13.35
2022-12-31T12:16:22.641Z,13.53
2022-12-31T12:19:17.454Z,13.49
2022-12-31T12:21:49.443Z,13.49
2022-12-31T12:24:29.376Z,13.54
2022-12-31T12:26:57.874Z,13.51
2022-12-31T12:29:35.113Z,13.24
2022-12-31T12:32:28.375Z,13.31
2022-12-31T12:34:55.392Z,13.17
2022-12-31T12:37:25.071Z,13.20
2022-12-31T12:40:29.825Z,13.03
2022-12-31T12:42:58.899Z,13.00
2022-12-31T12:45:46.358Z,13.03
2022-12-31T12:48:47.083Z,12.86
2022-12-31T12:51:49.007Z,12.86
2022-12-31T12:54:59.611Z,12.89
2022-12-31T12:58:03.988Z,12.84
2022-12-31T13:01:16.175Z,12.72
2022-12-31T13:04:35.184Z,12.84
2022-12-31T13:07:45.824Z,12.67
2022-12-31T13:10:36.757Z,12.77
2022-12-31T13:13:43.522Z,12.62
2022-12-31T13:16:39.859Z,12.61
2022-12-31T13:19:34.346Z,12.80
2022-12-31T13:22:25.172Z,12.79
2022-12-31T13:25:19.093Z,12.95
2022-12-31T13:27:51.841Z,13.01
2022-12-31T13:30:21.892Z,12.79
2022-12-31T13:32:58.309Z,12.71
2022-12-31T13:35:54.023Z,12.73
2022-12-31T13:38:42.318Z,12.85
2022-12-31T13:41:30.452Z,12.79
2022-12-31T13:44:08.771Z,12.79
2022-12-31T13:46:47.677Z,12.82
2022-12-31T13:49:23.670Z,12.88
2022-12-31T13:51:59.045Z,12.70
2022-12-31T13:55:01.934Z,12.71
2022-12-31T13:57:54.979Z,12.63
2022-12-31T14:00:34.666Z,12.84
2022-12-31T14:03:14.042Z,12.63
2022-12-31T14:05:57.752Z,12.69
2022-12-31T14:08:24.835Z,12.73
2022-12-31T14:11:07.032Z,12.67
2022-12-31T14:14:08.599Z,12.85
2022-12-31T14:16:55.492Z,12.67
2022-12-31T14:20:18.889Z,12.79
2022-12-31T14:23:23.644Z,12.70
2022-12-31T14:25:55.185Z,12.79
2022-12-31T14:28:33.947Z,12.74
2022-12-31T14:31:28.825Z,12.66
2022-12-31T14:34:47.557Z,12.61
2022-12-31T14:37:48.593Z,12.66
2022-12-31T14:40:26.633Z,12.73
2022-12-31T14:43:13.380Z,12.92
2022-12-31T14:46:21.738Z,13.05
2022-12-31T14:49:15.334Z,12.96
2022-12-31T14:51:42.433Z,12.86
2022-12-31T14:55:01.616Z,12.97
2022-12-31T14:58:01.682Z,13.19
2022-12-31T15:00:35.191Z,13.12
2022-12-31T15:03:13.878Z,13.24
2022-12-31T15:06:25.430Z,13.30
2022-12-31T15:09:08.955Z,13.08
2022-12-31T15:12:28.534Z,13.10
2022-12-31T15:15:29.335Z,12.94
2022-12-31T15:18:36.449Z,13.02
2022-12-31T15:21:36.972Z,12.97
2022-12-31T15:24:21.470Z,13.10
2022-12-31T15:26:58.601Z,13.42
2022-12-31T15:29:29.262Z,13.29
2022-12-31T15:32:00.863Z,13.17
2022-12-31T15:34:36.965Z,13.12
2022-12-31T15:37:28.060Z,13.20
2022-12-31T15:40:21.253Z,13.23
2022-12-31T15:43:13.465Z,13.12
2022-12-31T15:45:42.703Z,13.25
2022-12-31T15:48:22.099Z,13.27
2022-12-31T15:50:55.479Z,13.14
2022-12-31T15:53:47.029Z,13.21
2022-12-31T15:56:24.364Z,13.38
2022-12-31T15:58:57.950Z,13.44
2022-12-31T16:01:35.953Z,13.44
2022-12-31T16:04:07.923Z,13.38
2022-12-31T16:06:38.279Z,13.49
2022-12-31T16:09:18.618Z,13.67
2022-12-31T16:11:45.871Z,13.64
2022-12-31T16:14:45.027Z,13.46
2022-12-31T16:17:41.913Z,13.46
2022-12-31T16:20:30.652Z,13.52
2022-12-31T16:23:01.706Z,13.66
2022-12-31T16:25:33.757Z,13.65
2022-12-31T16:28:03.632Z,13.50
2022-12-31T16:30:33.140Z,13.45
2022-12-31T16:33:11.821Z,13.38
2022-12-31T16:35:38.969Z,13.48
2022-12-31T16:38:16.741Z,13.63
2022-12-31T16:41:01.067Z,13.52
2022-12-31T16:43:43.270Z,13.50
2022-12-31T16:46:26.307Z,13.35
2022-12-31T16:49:20.258Z,13.43
2022-12-31T16:51:49.630Z,13.53
2022-12-31T16:54:38.968Z,13.69
2022-12-31T16:57:11.001Z,13.52
2022-12-31T16:59:45.265Z,13.43
2022-12-31T17:02:23.173Z,13.38
2022-12-31T17:04:56.318Z,13.39
2022-12-31T17:07:32.696Z,13.33
2022-12-31T17:10:08.410Z,13.58
2022-12-31T17:13:25.088Z,13.45
2022-12-31T17:15:44.059Z,13.42
2022-12-31T17:18:26.919Z,13.58
2022-12-31T17:20:55.319Z,13.28
2022-12-31T17:23:31.677Z,13.27
2022-12-31T17:26:08.875Z,13.16
2022-12-31T17:28:46.052Z,13.24
2022-12-31T17:31:26.265Z,13.31
2022-12-31T17:34:03.963Z,13.37
2022-12-31T17:36:31.012Z,13.38
2022-12-31T17:39:18.525Z,13.38
2022-12-31T17:41:52.088Z,13.38
2022-12-31T17:44:28.187Z,13.28
2022-12-31T17:46:55.410Z,13.50
2022-12-31T17:49:31.561Z,13.46
2022-12-31T17:51:58.730Z,13.58
2022-12-31T17:54:25.794Z,13.35
2022-12-31T17:56:53.723Z,13.55
2022-12-31T17:59:29.804Z,13.50
2022-12-31T18:02:03.165Z,13.59
2022-12-31T18:04:30.329Z,13.59
2022-12-31T18:06:57.323Z,13.76
2022-12-31T18:09:24.472Z,13.65
2022-12-31T18:11:54.355Z,13.65
2022-12-31T18:14:23.932Z,13.62
2022-12-31T18:16:50.989Z,13.49
2022-12-31T18:19:45.930Z,13.71
2022-12-31T18:22:04.993Z,13.75
2022-12-31T18:24:32.013Z,13.73
2022-12-31T18:26:59.096Z,13.71
2022-12-31T18:29:26.125Z,13.91
2022-12-31T18:31:53.989Z,13.88
2022-12-31T18:34:21.137Z,13.94
2022-12-31T18:36:48.102Z,13.80
2022-12-31T18:39:15.148Z,13.80
2022-12-31T18:41:51.692Z,13.84
2022-12-31T18:44:18.810Z,13.97
2022-12-31T18:46:45.828Z,13.97
2022-12-31T18:49:12.814Z,14.01
2022-12-31T18:51:39.804Z,14.06
2022-12-31T18:54:10.999Z,14.03
2022-12-31T18:56:43.248Z,14.06
2022-12-31T18:59:13.646Z,14.11
2022-12-31T19:01:41.531Z,14.09
2022-12-31T19:04:21.277Z,14.20
2022-12-31T19:06:51.963Z,14.19
2022-12-31T19:09:44.009Z,14.28
2022-12-31T19:12:06.558Z,14.32
2022-12-31T19:14:33.563Z,14.27
2022-12-31T19:19:27.111Z,14.25
2022-12-31T19:21:54.190Z,14.20
2022-12-31T19:24:23.617Z,14.15
2022-12-31T19:26:51.093Z,14.15
2022-12-31T19:29:25.328Z,14.36
2022-12-31T19:31:52.894Z,14.26
2022-12-31T19:34:20.012Z,14.16
2022-12-31T19:36:47.149Z,14.08
2022-12-31T19:39:17.537Z,14.18
2022-12-31T19:41:45.261Z,14.16
2022-12-31T19:44:18.014Z,13.99
2022-12-31T19:46:46.706Z,14.08
2022-12-31T19:49:15.281Z,13.92
2022-12-31T19:51:42.966Z,14.06
2022-12-31T19:54:12.989Z,14.10
2022-12-31T19:56:40.039Z,14.21
2022-12-31T19:59:09.824Z,14.01
2022-12-31T20:01:37.249Z,14.12
2022-12-31T20:04:04.824Z,14.22
2022-12-31T20:06:31.867Z,14.32
2022-12-31T20:08:58.877Z,14.21
2022-12-31T20:11:26.052Z,14.22
2022-12-31T20:13:56.412Z,13.98
2022-12-31T20:16:27.041Z,14.23
2022-12-31T20:18:54.372Z,14.34
2022-12-31T20:21:28.663Z,14.27
2022-12-31T20:23:56.119Z,13.86
2022-12-31T20:26:24.824Z,14.11
2022-12-31T20:28:52.656Z,14.12
2022-12-31T20:31:24.083Z,13.97
2022-12-31T20:33:51.611Z,14.08
2022-12-31T20:36:18.642Z,14.23
2022-12-31T20:38:46.220Z,14.04
2022-12-31T20:41:17.053Z,13.89
2022-12-31T20:43:44.984Z,13.83
2022-12-31T20:46:23.025Z,13.76
2022-12-31T20:48:53.117Z,13.75
2022-12-31T20:51:21.680Z,13.84
2022-12-31T20:53:52.495Z,13.88
2022-12-31T20:56:19.731Z,13.84
2022-12-31T20:58:47.143Z,14.27
2022-12-31T21:01:18.551Z,14.17
2022-12-31T21:04:04.694Z,13.79
2022-12-31T21:06:35.573Z,13.77
2022-12-31T21:09:07.814Z,14.05
2022-12-31T21:11:53.857Z,14.12
2022-12-31T21:14:21.471Z,13.71
2022-12-31T21:16:48.674Z,13.73
2022-12-31T21:19:15.779Z,13.55
2022-12-31T21:21:43.040Z,13.48
2022-12-31T21:24:10.610Z,13.72
2022-12-31T21:26:37.641Z,13.60
2022-12-31T21:29:04.748Z,13.43
2022-12-31T21:31:31.791Z,13.52
2022-12-31T21:33:59.316Z,13.51
2022-12-31T21:36:26.334Z,13.43
2022-12-31T21:38:53.383Z,13.80
2022-12-31T21:41:39.015Z,13.81
2022-12-31T21:44:06.157Z,13.54
2022-12-31T21:46:33.233Z,13.58
2022-12-31T21:49:01.061Z,13.49
2022-12-31T21:51:29.453Z,13.36
2022-12-31T21:53:57.141Z,13.43
2022-12-31T21:56:24.386Z,13.39
2022-12-31T21:59:16.539Z,13.56
2022-12-31T22:02:02.209Z,13.53
2022-12-31T22:07:16.996Z,13.46
2022-12-31T22:09:44.020Z,13.38
2022-12-31T22:12:11.086Z,13.45
2022-12-31T22:14:38.176Z,13.25
2022-12-31T22:17:05.251Z,13.22
2022-12-31T22:19:43.510Z,13.21
2022-12-31T22:22:15.632Z,13.10
2022-12-31T22:24:42.705Z,13.39
2022-12-31T22:27:28.177Z,13.36
2022-12-31T22:29:56.825Z,13.44
2022-12-31T22:32:23.855Z,13.58
2022-12-31T22:34:50.841Z,13.46
2022-12-31T22:37:54.526Z,13.33
2022-12-31T22:40:05.917Z,13.46
2022-12-31T22:42:33.035Z,13.44
2022-12-31T22:45:00.295Z,13.44
2022-12-31T22:47:27.642Z,13.53
2022-12-31T22:49:55.135Z,13.63
2022-12-31T22:52:22.319Z,13.40
2022-12-31T22:54:49.377Z,13.28
2022-12-31T22:57:20.167Z,13.54
2022-12-31T22:59:47.918Z,14.00
2022-12-31T23:02:16.410Z,14.24
2022-12-31T23:04:43.575Z,14.35
2022-12-31T23:07:10.621Z,14.43
2022-12-31T23:09:56.536Z,14.54
2022-12-31T23:12:25.081Z,14.60
2022-12-31T23:15:10.864Z,14.63
2022-12-31T23:17:56.633Z,14.53
2022-12-31T23:20:44.498Z,14.39
2022-12-31T23:23:20.405Z,14.54
2022-12-31T23:25:52.531Z,14.45
2022-12-31T23:28:23.579Z,14.30
2022-12-31T23:30:51.622Z,14.16
2022-12-31T23:33:22.836Z,14.11
2022-12-31T23:35:50.018Z,14.01
2022-12-31T23:38:18.932Z,13.93
2022-12-31T23:40:45.953Z,13.92
2022-12-31T23:43:21.624Z,13.93
2022-12-31T23:45:50.981Z,14.00
2022-12-31T23:48:18.040Z,13.96
2022-12-31T23:50:50.866Z,14.01
2022-12-31T23:53:20.026Z,13.92
2022-12-31T23:55:47.111Z,13.84
2022-12-31T23:58:14.838Z,13.83
